Pagrindinis puslapis
METAR-TAF:

METAR-TAF

Oro uostai :

Milano Malpensa oro uostas

Milanas, Italija

platuma: 45-37N, ilguma: 008-44E, Aukštis: 234 m

Dabartinis oras

Ataskaita buvo paskelbta 34 minutes, ne 02:20 UTC
Vėjas 3 kt iš Rytų/Pietryčių
Temperatūra 4°C
Drėgmė 100%
Slėgis 1022 hPa
Matomumas: 3000 m
Išsisklaidę debesys ne aukštis 1500 ft
Apsiniaukę ne aukštis 5000 ft
lietus, Rūkas lopais

METAR: LIMC 180220Z 11003KT 3000 R35R/0900VP1500D R17L/1300U R35L/P1500N -RA BCFG SCT015 OVC050 04/04 Q1022 RERA NOSIG

Laikas: 03:54 (02:54 UTC)

Prognozė

Ataskaita buvo paskelbta 3 valandos ir 54 minutes, ne 23:00 UTC
Prognozė galioja nuo 18 metu 00 UTC su 19 metu 06 UTC
Vėjas 5 kt nuo kintamojo kryptimis
Matomumas: 7000 m
Išsisklaidę debesys ne aukštis 2500 ft
Su prošvaistėmis ne aukštis 6000 ft
Laikinai
nuo 18 metu 00 UTC su 18 metu 06 UTC
lietus
Laikinai
nuo 18 metu 22 UTC su 19 metu 06 UTC
Matomumas: 3000 m
Rūkas lopais

TAF: LIMC 172300Z 1800/1906 VRB05KT 7000 SCT025 BKN060 TEMPO 1800/1806 RA TEMPO 1822/1906 3000 BCFG

Orai ataskaitas ir orų prognozės (METAR, TAF).

turimą stotys yra geltonos ir raudonos taškus žemėlapyje.

Perkelti pele per norėdami pamatyti stoties vardą.

Tada spustelėkite, norėdami matyti oro stebėjimo ir prognozės.

Norėdami pakeisti žemėlapį: spustelėkite ant žalios mygtukų su juodo kryžiaus žemyn,; žalią mygtuką su brūkšneliu, jei norite nutolinti; arba žalių rodyklių gretimoms žemėlapius.


METAR-TAF: